sensor_id;sensor_type;location;lat;lon;timestamp;P1;durP1;ratioP1;P2;durP2;ratioP2
80400;SDS011;69727;53.132;8.230;2023-11-21T00:02:19;29.58;;;7.40;;
80400;SDS011;69727;53.132;8.230;2023-11-21T00:04:45;21.83;;;7.32;;
80400;SDS011;69727;53.132;8.230;2023-11-21T00:07:11;34.73;;;10.03;;
80400;SDS011;69727;53.132;8.230;2023-11-21T00:09:36;26.90;;;8.27;;
80400;SDS011;69727;53.132;8.230;2023-11-21T00:12:02;20.47;;;7.33;;
80400;SDS011;69727;53.132;8.230;2023-11-21T00:14:28;20.75;;;8.20;;
80400;SDS011;69727;53.132;8.230;2023-11-21T00:16:53;26.67;;;7.77;;
80400;SDS011;69727;53.132;8.230;2023-11-21T00:19:19;22.88;;;7.95;;
80400;SDS011;69727;53.132;8.230;2023-11-21T00:21:44;27.33;;;7.85;;
80400;SDS011;69727;53.132;8.230;2023-11-21T00:24:10;20.17;;;7.05;;
80400;SDS011;69727;53.132;8.230;2023-11-21T00:26:39;19.55;;;7.40;;
80400;SDS011;69727;53.132;8.230;2023-11-21T00:29:04;15.65;;;7.18;;
80400;SDS011;69727;53.132;8.230;2023-11-21T00:31:33;23.60;;;7.80;;
80400;SDS011;69727;53.132;8.230;2023-11-21T00:34:05;19.33;;;7.68;;
80400;SDS011;69727;53.132;8.230;2023-11-21T00:36:30;17.23;;;6.60;;
80400;SDS011;69727;53.132;8.230;2023-11-21T00:38:59;19.17;;;7.22;;
80400;SDS011;69727;53.132;8.230;2023-11-21T00:41:24;18.23;;;7.00;;
80400;SDS011;69727;53.132;8.230;2023-11-21T00:43:52;23.65;;;7.68;;
80400;SDS011;69727;53.132;8.230;2023-11-21T00:46:18;23.63;;;8.27;;
80400;SDS011;69727;53.132;8.230;2023-11-21T00:48:44;23.45;;;8.60;;
80400;SDS011;69727;53.132;8.230;2023-11-21T00:51:09;23.17;;;8.03;;
80400;SDS011;69727;53.132;8.230;2023-11-21T00:53:35;25.95;;;8.52;;
80400;SDS011;69727;53.132;8.230;2023-11-21T00:56:00;22.53;;;7.33;;
80400;SDS011;69727;53.132;8.230;2023-11-21T00:58:26;22.77;;;8.33;;
80400;SDS011;69727;53.132;8.230;2023-11-21T01:00:52;22.52;;;8.15;;
80400;SDS011;69727;53.132;8.230;2023-11-21T01:03:18;25.90;;;8.82;;
80400;SDS011;69727;53.132;8.230;2023-11-21T01:05:43;21.80;;;8.25;;
80400;SDS011;69727;53.132;8.230;2023-11-21T01:08:09;22.27;;;8.15;;
80400;SDS011;69727;53.132;8.230;2023-11-21T01:10:34;23.63;;;8.50;;
80400;SDS011;69727;53.132;8.230;2023-11-21T01:13:00;23.73;;;7.72;;
80400;SDS011;69727;53.132;8.230;2023-11-21T01:15:25;17.88;;;7.45;;
80400;SDS011;69727;53.132;8.230;2023-11-21T01:17:53;19.50;;;8.00;;
80400;SDS011;69727;53.132;8.230;2023-11-21T01:20:19;16.80;;;7.40;;
80400;SDS011;69727;53.132;8.230;2023-11-21T01:22:44;18.80;;;7.17;;
80400;SDS011;69727;53.132;8.230;2023-11-21T01:25:09;23.10;;;8.70;;
80400;SDS011;69727;53.132;8.230;2023-11-21T01:27:35;25.40;;;8.52;;
80400;SDS011;69727;53.132;8.230;2023-11-21T01:30:02;23.73;;;8.75;;
80400;SDS011;69727;53.132;8.230;2023-11-21T01:32:28;23.60;;;7.90;;
80400;SDS011;69727;53.132;8.230;2023-11-21T01:34:54;24.75;;;8.02;;
80400;SDS011;69727;53.132;8.230;2023-11-21T01:37:22;23.23;;;9.30;;
80400;SDS011;69727;53.132;8.230;2023-11-21T01:39:49;21.92;;;8.93;;
80400;SDS011;69727;53.132;8.230;2023-11-21T01:42:14;21.08;;;8.45;;
80400;SDS011;69727;53.132;8.230;2023-11-21T01:44:39;21.07;;;8.93;;
80400;SDS011;69727;53.132;8.230;2023-11-21T01:47:05;22.92;;;9.30;;
80400;SDS011;69727;53.132;8.230;2023-11-21T01:49:32;24.15;;;9.15;;
80400;SDS011;69727;53.132;8.230;2023-11-21T01:51:58;26.88;;;10.40;;
80400;SDS011;69727;53.132;8.230;2023-11-21T01:54:24;18.77;;;8.70;;
80400;SDS011;69727;53.132;8.230;2023-11-21T01:56:50;17.67;;;8.90;;
80400;SDS011;69727;53.132;8.230;2023-11-21T01:59:18;19.48;;;10.35;;
80400;SDS011;69727;53.132;8.230;2023-11-21T02:01:46;25.92;;;10.77;;
80400;SDS011;69727;53.132;8.230;2023-11-21T02:04:12;30.15;;;11.82;;
80400;SDS011;69727;53.132;8.230;2023-11-21T02:06:38;26.02;;;11.68;;
80400;SDS011;69727;53.132;8.230;2023-11-21T02:09:04;27.05;;;10.10;;
80400;SDS011;69727;53.132;8.230;2023-11-21T02:11:29;28.00;;;11.55;;
80400;SDS011;69727;53.132;8.230;2023-11-21T02:13:55;25.15;;;10.73;;
80400;SDS011;69727;53.132;8.230;2023-11-21T02:16:21;27.17;;;11.90;;
80400;SDS011;69727;53.132;8.230;2023-11-21T02:18:47;26.77;;;10.50;;
80400;SDS011;69727;53.132;8.230;2023-11-21T02:21:13;25.40;;;11.07;;
80400;SDS011;69727;53.132;8.230;2023-11-21T02:23:39;29.92;;;11.57;;
80400;SDS011;69727;53.132;8.230;2023-11-21T02:26:09;25.40;;;10.70;;
80400;SDS011;69727;53.132;8.230;2023-11-21T02:28:34;25.05;;;10.43;;
80400;SDS011;69727;53.132;8.230;2023-11-21T02:31:00;24.17;;;9.75;;
80400;SDS011;69727;53.132;8.230;2023-11-21T02:33:27;21.02;;;8.82;;
80400;SDS011;69727;53.132;8.230;2023-11-21T02:35:53;21.23;;;9.47;;
80400;SDS011;69727;53.132;8.230;2023-11-21T02:38:20;13.20;;;7.75;;
80400;SDS011;69727;53.132;8.230;2023-11-21T02:40:46;19.52;;;8.77;;
80400;SDS011;69727;53.132;8.230;2023-11-21T02:43:11;22.23;;;9.18;;
80400;SDS011;69727;53.132;8.230;2023-11-21T02:45:37;21.33;;;9.07;;
80400;SDS011;69727;53.132;8.230;2023-11-21T02:48:02;20.23;;;8.27;;
80400;SDS011;69727;53.132;8.230;2023-11-21T02:50:28;14.98;;;8.05;;
80400;SDS011;69727;53.132;8.230;2023-11-21T02:52:54;22.48;;;8.32;;
80400;SDS011;69727;53.132;8.230;2023-11-21T02:55:22;22.65;;;8.43;;
80400;SDS011;69727;53.132;8.230;2023-11-21T02:57:49;24.05;;;8.30;;
80400;SDS011;69727;53.132;8.230;2023-11-21T03:00:16;26.52;;;8.40;;
80400;SDS011;69727;53.132;8.230;2023-11-21T03:02:42;24.30;;;8.65;;
80400;SDS011;69727;53.132;8.230;2023-11-21T03:05:08;17.10;;;7.43;;
80400;SDS011;69727;53.132;8.230;2023-11-21T03:07:34;18.13;;;7.63;;
80400;SDS011;69727;53.132;8.230;2023-11-21T03:10:00;18.50;;;8.60;;
80400;SDS011;69727;53.132;8.230;2023-11-21T03:12:25;26.25;;;8.07;;
80400;SDS011;69727;53.132;8.230;2023-11-21T03:14:51;20.27;;;8.45;;
80400;SDS011;69727;53.132;8.230;2023-11-21T03:17:16;16.83;;;7.93;;
80400;SDS011;69727;53.132;8.230;2023-11-21T03:19:42;14.35;;;6.85;;
80400;SDS011;69727;53.132;8.230;2023-11-21T03:22:07;20.50;;;7.80;;
80400;SDS011;69727;53.132;8.230;2023-11-21T03:24:33;25.42;;;8.82;;
80400;SDS011;69727;53.132;8.230;2023-11-21T03:26:59;22.15;;;8.13;;
80400;SDS011;69727;53.132;8.230;2023-11-21T03:29:25;23.92;;;9.57;;
80400;SDS011;69727;53.132;8.230;2023-11-21T03:31:50;27.15;;;9.32;;
80400;SDS011;69727;53.132;8.230;2023-11-21T03:34:23;21.70;;;8.70;;
80400;SDS011;69727;53.132;8.230;2023-11-21T03:36:53;17.55;;;7.82;;
80400;SDS011;69727;53.132;8.230;2023-11-21T03:39:22;18.17;;;7.95;;
80400;SDS011;69727;53.132;8.230;2023-11-21T03:41:47;21.70;;;8.32;;
80400;SDS011;69727;53.132;8.230;2023-11-21T03:44:13;25.23;;;8.40;;
80400;SDS011;69727;53.132;8.230;2023-11-21T03:46:39;27.33;;;8.77;;
80400;SDS011;69727;53.132;8.230;2023-11-21T03:49:05;19.90;;;7.70;;
80400;SDS011;69727;53.132;8.230;2023-11-21T03:51:30;25.42;;;9.25;;
80400;SDS011;69727;53.132;8.230;2023-11-21T03:53:55;19.65;;;7.72;;
80400;SDS011;69727;53.132;8.230;2023-11-21T03:56:21;21.40;;;7.88;;
80400;SDS011;69727;53.132;8.230;2023-11-21T03:58:47;21.52;;;9.20;;
80400;SDS011;69727;53.132;8.230;2023-11-21T04:01:23;19.95;;;8.63;;
80400;SDS011;69727;53.132;8.230;2023-11-21T04:03:50;26.35;;;9.05;;
80400;SDS011;69727;53.132;8.230;2023-11-21T04:06:16;24.85;;;8.13;;
80400;SDS011;69727;53.132;8.230;2023-11-21T04:08:45;23.83;;;9.15;;
80400;SDS011;69727;53.132;8.230;2023-11-21T04:11:10;22.60;;;9.05;;
80400;SDS011;69727;53.132;8.230;2023-11-21T04:13:39;25.75;;;9.77;;
80400;SDS011;69727;53.132;8.230;2023-11-21T04:16:08;25.15;;;8.63;;
80400;SDS011;69727;53.132;8.230;2023-11-21T04:18:35;23.02;;;9.38;;
80400;SDS011;69727;53.132;8.230;2023-11-21T04:21:02;31.25;;;11.63;;
80400;SDS011;69727;53.132;8.230;2023-11-21T04:23:28;31.45;;;10.57;;
80400;SDS011;69727;53.132;8.230;2023-11-21T04:25:55;25.95;;;9.68;;
80400;SDS011;69727;53.132;8.230;2023-11-21T04:28:22;30.20;;;10.27;;
80400;SDS011;69727;53.132;8.230;2023-11-21T04:30:47;32.72;;;10.48;;
80400;SDS011;69727;53.132;8.230;2023-11-21T04:33:13;31.03;;;12.57;;
80400;SDS011;69727;53.132;8.230;2023-11-21T04:35:38;33.53;;;11.70;;
80400;SDS011;69727;53.132;8.230;2023-11-21T04:38:04;36.87;;;12.93;;
80400;SDS011;69727;53.132;8.230;2023-11-21T04:40:29;28.17;;;11.90;;
80400;SDS011;69727;53.132;8.230;2023-11-21T04:42:54;31.73;;;13.43;;
80400;SDS011;69727;53.132;8.230;2023-11-21T04:45:21;34.00;;;13.88;;
80400;SDS011;69727;53.132;8.230;2023-11-21T04:47:47;31.90;;;12.03;;
80400;SDS011;69727;53.132;8.230;2023-11-21T04:50:12;33.97;;;13.70;;
80400;SDS011;69727;53.132;8.230;2023-11-21T04:52:37;33.33;;;14.20;;
80400;SDS011;69727;53.132;8.230;2023-11-21T04:55:03;37.10;;;13.93;;
80400;SDS011;69727;53.132;8.230;2023-11-21T04:57:29;33.22;;;13.45;;
80400;SDS011;69727;53.132;8.230;2023-11-21T04:59:54;33.80;;;12.10;;
80400;SDS011;69727;53.132;8.230;2023-11-21T05:02:19;34.70;;;13.63;;
80400;SDS011;69727;53.132;8.230;2023-11-21T05:04:46;36.33;;;15.45;;
80400;SDS011;69727;53.132;8.230;2023-11-21T05:07:12;33.70;;;14.70;;
80400;SDS011;69727;53.132;8.230;2023-11-21T05:09:41;32.40;;;13.60;;
80400;SDS011;69727;53.132;8.230;2023-11-21T05:12:11;32.55;;;12.32;;
80400;SDS011;69727;53.132;8.230;2023-11-21T05:14:37;30.95;;;13.45;;
80400;SDS011;69727;53.132;8.230;2023-11-21T05:17:02;30.75;;;12.10;;
80400;SDS011;69727;53.132;8.230;2023-11-21T05:19:29;27.98;;;12.18;;
80400;SDS011;69727;53.132;8.230;2023-11-21T05:21:54;28.05;;;11.38;;
80400;SDS011;69727;53.132;8.230;2023-11-21T05:24:20;30.48;;;11.90;;
80400;SDS011;69727;53.132;8.230;2023-11-21T05:26:45;29.80;;;11.57;;
80400;SDS011;69727;53.132;8.230;2023-11-21T05:29:10;29.67;;;12.43;;
80400;SDS011;69727;53.132;8.230;2023-11-21T05:31:36;29.20;;;11.40;;
80400;SDS011;69727;53.132;8.230;2023-11-21T05:34:02;29.35;;;11.48;;
80400;SDS011;69727;53.132;8.230;2023-11-21T05:36:30;28.50;;;11.38;;
80400;SDS011;69727;53.132;8.230;2023-11-21T05:38:55;27.00;;;10.85;;
80400;SDS011;69727;53.132;8.230;2023-11-21T05:41:21;27.23;;;10.93;;
80400;SDS011;69727;53.132;8.230;2023-11-21T05:43:46;22.45;;;10.30;;
80400;SDS011;69727;53.132;8.230;2023-11-21T05:46:12;29.53;;;11.23;;
80400;SDS011;69727;53.132;8.230;2023-11-21T05:48:38;27.83;;;11.52;;
80400;SDS011;69727;53.132;8.230;2023-11-21T05:51:06;24.42;;;10.13;;
80400;SDS011;69727;53.132;8.230;2023-11-21T05:53:33;23.13;;;10.10;;
80400;SDS011;69727;53.132;8.230;2023-11-21T05:55:58;23.63;;;9.75;;
80400;SDS011;69727;53.132;8.230;2023-11-21T05:58:24;26.13;;;10.50;;
80400;SDS011;69727;53.132;8.230;2023-11-21T06:00:49;26.97;;;11.00;;
80400;SDS011;69727;53.132;8.230;2023-11-21T06:03:14;25.87;;;10.47;;
80400;SDS011;69727;53.132;8.230;2023-11-21T06:05:40;29.67;;;11.43;;
80400;SDS011;69727;53.132;8.230;2023-11-21T06:08:05;30.33;;;10.70;;
80400;SDS011;69727;53.132;8.230;2023-11-21T06:10:34;34.67;;;11.18;;
80400;SDS011;69727;53.132;8.230;2023-11-21T06:12:59;29.90;;;10.57;;
80400;SDS011;69727;53.132;8.230;2023-11-21T06:15:24;27.38;;;11.05;;
80400;SDS011;69727;53.132;8.230;2023-11-21T06:17:50;25.03;;;10.70;;
80400;SDS011;69727;53.132;8.230;2023-11-21T06:20:19;29.40;;;11.57;;
80400;SDS011;69727;53.132;8.230;2023-11-21T06:22:46;25.92;;;10.48;;
80400;SDS011;69727;53.132;8.230;2023-11-21T06:25:13;27.58;;;11.40;;
80400;SDS011;69727;53.132;8.230;2023-11-21T06:27:40;25.67;;;11.18;;
80400;SDS011;69727;53.132;8.230;2023-11-21T06:30:08;25.63;;;10.85;;
80400;SDS011;69727;53.132;8.230;2023-11-21T06:32:38;31.42;;;12.30;;
80400;SDS011;69727;53.132;8.230;2023-11-21T06:35:04;25.88;;;10.93;;
80400;SDS011;69727;53.132;8.230;2023-11-21T06:37:31;23.02;;;10.20;;
80400;SDS011;69727;53.132;8.230;2023-11-21T06:39:57;24.77;;;11.20;;
80400;SDS011;69727;53.132;8.230;2023-11-21T06:42:24;23.27;;;10.18;;
80400;SDS011;69727;53.132;8.230;2023-11-21T06:44:50;20.95;;;9.65;;
80400;SDS011;69727;53.132;8.230;2023-11-21T06:47:22;19.50;;;8.40;;
80400;SDS011;69727;53.132;8.230;2023-11-21T06:49:50;19.02;;;7.65;;
80400;SDS011;69727;53.132;8.230;2023-11-21T06:52:16;16.13;;;7.75;;
80400;SDS011;69727;53.132;8.230;2023-11-21T06:54:43;14.90;;;7.63;;
80400;SDS011;69727;53.132;8.230;2023-11-21T06:57:12;15.90;;;7.68;;
80400;SDS011;69727;53.132;8.230;2023-11-21T06:59:37;13.60;;;6.80;;
80400;SDS011;69727;53.132;8.230;2023-11-21T07:02:03;15.83;;;7.67;;
80400;SDS011;69727;53.132;8.230;2023-11-21T07:04:31;15.50;;;7.75;;
80400;SDS011;69727;53.132;8.230;2023-11-21T07:06:57;15.63;;;6.35;;
80400;SDS011;69727;53.132;8.230;2023-11-21T07:09:22;13.75;;;6.95;;
80400;SDS011;69727;53.132;8.230;2023-11-21T07:11:48;12.10;;;5.37;;
80400;SDS011;69727;53.132;8.230;2023-11-21T07:14:14;13.02;;;5.93;;
80400;SDS011;69727;53.132;8.230;2023-11-21T07:16:40;11.20;;;5.45;;
80400;SDS011;69727;53.132;8.230;2023-11-21T07:19:06;13.15;;;6.43;;
80400;SDS011;69727;53.132;8.230;2023-11-21T07:21:32;13.43;;;7.05;;
80400;SDS011;69727;53.132;8.230;2023-11-21T07:23:59;15.35;;;6.50;;
80400;SDS011;69727;53.132;8.230;2023-11-21T07:26:26;14.18;;;5.93;;
80400;SDS011;69727;53.132;8.230;2023-11-21T07:28:51;16.50;;;6.85;;
80400;SDS011;69727;53.132;8.230;2023-11-21T07:31:17;15.02;;;7.03;;
80400;SDS011;69727;53.132;8.230;2023-11-21T07:33:42;13.98;;;6.97;;
80400;SDS011;69727;53.132;8.230;2023-11-21T07:36:08;18.08;;;7.80;;
80400;SDS011;69727;53.132;8.230;2023-11-21T07:38:33;16.77;;;7.80;;
80400;SDS011;69727;53.132;8.230;2023-11-21T07:40:59;15.40;;;7.03;;
80400;SDS011;69727;53.132;8.230;2023-11-21T07:43:26;18.00;;;7.75;;
80400;SDS011;69727;53.132;8.230;2023-11-21T07:45:52;15.93;;;7.32;;
80400;SDS011;69727;53.132;8.230;2023-11-21T07:48:17;14.63;;;6.88;;
80400;SDS011;69727;53.132;8.230;2023-11-21T07:50:42;15.27;;;7.23;;
80400;SDS011;69727;53.132;8.230;2023-11-21T07:53:08;16.35;;;7.80;;
80400;SDS011;69727;53.132;8.230;2023-11-21T07:55:34;17.50;;;7.75;;
80400;SDS011;69727;53.132;8.230;2023-11-21T07:58:01;17.20;;;6.97;;
80400;SDS011;69727;53.132;8.230;2023-11-21T08:00:27;17.63;;;7.53;;
80400;SDS011;69727;53.132;8.230;2023-11-21T08:02:55;14.40;;;6.82;;
80400;SDS011;69727;53.132;8.230;2023-11-21T08:05:20;17.10;;;7.55;;
80400;SDS011;69727;53.132;8.230;2023-11-21T08:07:46;16.20;;;6.83;;
80400;SDS011;69727;53.132;8.230;2023-11-21T08:10:11;15.97;;;7.30;;
80400;SDS011;69727;53.132;8.230;2023-11-21T08:12:36;17.23;;;7.87;;
80400;SDS011;69727;53.132;8.230;2023-11-21T08:15:03;17.08;;;8.05;;
80400;SDS011;69727;53.132;8.230;2023-11-21T08:17:30;15.98;;;7.18;;
80400;SDS011;69727;53.132;8.230;2023-11-21T08:19:57;14.68;;;8.10;;
80400;SDS011;69727;53.132;8.230;2023-11-21T08:22:23;16.55;;;6.90;;
80400;SDS011;69727;53.132;8.230;2023-11-21T08:24:50;14.27;;;6.85;;
80400;SDS011;69727;53.132;8.230;2023-11-21T08:27:15;16.75;;;7.75;;
80400;SDS011;69727;53.132;8.230;2023-11-21T08:29:41;16.13;;;8.20;;
80400;SDS011;69727;53.132;8.230;2023-11-21T08:32:07;19.33;;;7.68;;
80400;SDS011;69727;53.132;8.230;2023-11-21T08:34:32;18.00;;;8.10;;
80400;SDS011;69727;53.132;8.230;2023-11-21T08:36:58;15.73;;;8.32;;
80400;SDS011;69727;53.132;8.230;2023-11-21T08:39:23;19.20;;;8.50;;
80400;SDS011;69727;53.132;8.230;2023-11-21T08:41:49;16.63;;;7.85;;
80400;SDS011;69727;53.132;8.230;2023-11-21T08:44:16;17.88;;;7.85;;
80400;SDS011;69727;53.132;8.230;2023-11-21T08:46:43;18.35;;;8.13;;
80400;SDS011;69727;53.132;8.230;2023-11-21T08:49:10;19.08;;;8.10;;
80400;SDS011;69727;53.132;8.230;2023-11-21T08:51:37;19.58;;;8.25;;
80400;SDS011;69727;53.132;8.230;2023-11-21T08:54:03;16.95;;;7.65;;
80400;SDS011;69727;53.132;8.230;2023-11-21T08:56:32;15.50;;;8.00;;
80400;SDS011;69727;53.132;8.230;2023-11-21T08:58:58;16.75;;;7.90;;
80400;SDS011;69727;53.132;8.230;2023-11-21T09:01:25;15.70;;;7.32;;
80400;SDS011;69727;53.132;8.230;2023-11-21T09:03:51;16.23;;;6.82;;
80400;SDS011;69727;53.132;8.230;2023-11-21T09:06:16;14.73;;;7.57;;
80400;SDS011;69727;53.132;8.230;2023-11-21T09:08:41;16.63;;;8.03;;
80400;SDS011;69727;53.132;8.230;2023-11-21T09:11:07;15.70;;;7.35;;
80400;SDS011;69727;53.132;8.230;2023-11-21T09:13:33;15.82;;;7.90;;
80400;SDS011;69727;53.132;8.230;2023-11-21T09:15:59;15.32;;;7.80;;
80400;SDS011;69727;53.132;8.230;2023-11-21T09:18:25;17.52;;;7.95;;
80400;SDS011;69727;53.132;8.230;2023-11-21T09:20:50;14.55;;;7.53;;
80400;SDS011;69727;53.132;8.230;2023-11-21T09:23:16;17.10;;;7.35;;
80400;SDS011;69727;53.132;8.230;2023-11-21T09:25:41;14.45;;;7.70;;
80400;SDS011;69727;53.132;8.230;2023-11-21T09:28:11;14.98;;;7.20;;
80400;SDS011;69727;53.132;8.230;2023-11-21T09:30:36;15.90;;;7.93;;
80400;SDS011;69727;53.132;8.230;2023-11-21T09:33:03;17.17;;;7.55;;
80400;SDS011;69727;53.132;8.230;2023-11-21T09:35:33;13.65;;;7.97;;
80400;SDS011;69727;53.132;8.230;2023-11-21T09:37:59;16.20;;;7.75;;
80400;SDS011;69727;53.132;8.230;2023-11-21T09:40:26;15.93;;;7.80;;
80400;SDS011;69727;53.132;8.230;2023-11-21T09:42:55;16.45;;;7.60;;
80400;SDS011;69727;53.132;8.230;2023-11-21T09:48:48;16.75;;;6.70;;
80400;SDS011;69727;53.132;8.230;2023-11-21T09:51:19;14.52;;;7.80;;
80400;SDS011;69727;53.132;8.230;2023-11-21T09:53:48;16.95;;;8.35;;
80400;SDS011;69727;53.132;8.230;2023-11-21T09:56:17;18.17;;;8.20;;
80400;SDS011;69727;53.132;8.230;2023-11-21T09:58:54;14.55;;;6.85;;
80400;SDS011;69727;53.132;8.230;2023-11-21T10:01:22;15.40;;;7.18;;
80400;SDS011;69727;53.132;8.230;2023-11-21T10:03:49;14.15;;;6.72;;
80400;SDS011;69727;53.132;8.230;2023-11-21T10:06:14;17.05;;;8.18;;
80400;SDS011;69727;53.132;8.230;2023-11-21T10:08:41;15.38;;;7.30;;
80400;SDS011;69727;53.132;8.230;2023-11-21T10:11:08;15.95;;;7.85;;
80400;SDS011;69727;53.132;8.230;2023-11-21T10:13:36;15.50;;;7.95;;
80400;SDS011;69727;53.132;8.230;2023-11-21T10:16:03;15.38;;;7.45;;
80400;SDS011;69727;53.132;8.230;2023-11-21T10:18:30;15.43;;;7.25;;
80400;SDS011;69727;53.132;8.230;2023-11-21T10:20:59;14.43;;;7.03;;
80400;SDS011;69727;53.132;8.230;2023-11-21T10:23:25;14.98;;;6.68;;
80400;SDS011;69727;53.132;8.230;2023-11-21T10:25:52;14.27;;;6.63;;
80400;SDS011;69727;53.132;8.230;2023-11-21T10:28:18;13.63;;;6.82;;
80400;SDS011;69727;53.132;8.230;2023-11-21T10:30:44;13.65;;;6.75;;
80400;SDS011;69727;53.132;8.230;2023-11-21T10:33:09;14.27;;;7.20;;
80400;SDS011;69727;53.132;8.230;2023-11-21T10:35:43;13.82;;;6.65;;
80400;SDS011;69727;53.132;8.230;2023-11-21T10:38:16;14.35;;;6.78;;
80400;SDS011;69727;53.132;8.230;2023-11-21T10:40:43;13.30;;;6.65;;
80400;SDS011;69727;53.132;8.230;2023-11-21T10:43:10;14.68;;;7.30;;
80400;SDS011;69727;53.132;8.230;2023-11-21T10:45:39;14.93;;;6.78;;
80400;SDS011;69727;53.132;8.230;2023-11-21T10:48:06;15.05;;;7.10;;
80400;SDS011;69727;53.132;8.230;2023-11-21T10:50:40;11.68;;;5.28;;
80400;SDS011;69727;53.132;8.230;2023-11-21T10:53:06;13.63;;;6.38;;
80400;SDS011;69727;53.132;8.230;2023-11-21T10:55:33;13.93;;;6.57;;
80400;SDS011;69727;53.132;8.230;2023-11-21T10:58:00;14.15;;;6.15;;
80400;SDS011;69727;53.132;8.230;2023-11-21T11:00:28;14.68;;;6.47;;
80400;SDS011;69727;53.132;8.230;2023-11-21T11:02:54;13.55;;;6.32;;
80400;SDS011;69727;53.132;8.230;2023-11-21T11:05:21;15.05;;;7.10;;
80400;SDS011;69727;53.132;8.230;2023-11-21T11:07:51;14.52;;;7.03;;
80400;SDS011;69727;53.132;8.230;2023-11-21T11:10:25;12.00;;;6.30;;
80400;SDS011;69727;53.132;8.230;2023-11-21T11:12:53;13.60;;;7.03;;
80400;SDS011;69727;53.132;8.230;2023-11-21T11:15:20;13.60;;;6.65;;
80400;SDS011;69727;53.132;8.230;2023-11-21T11:17:49;14.25;;;7.00;;
80400;SDS011;69727;53.132;8.230;2023-11-21T11:20:15;14.02;;;6.88;;
80400;SDS011;69727;53.132;8.230;2023-11-21T11:22:44;12.77;;;6.10;;
80400;SDS011;69727;53.132;8.230;2023-11-21T11:28:14;14.43;;;6.50;;
80400;SDS011;69727;53.132;8.230;2023-11-21T11:30:52;11.15;;;6.13;;
80400;SDS011;69727;53.132;8.230;2023-11-21T11:38:47;10.40;;;5.53;;
80400;SDS011;69727;53.132;8.230;2023-11-21T11:41:24;14.50;;;6.07;;
80400;SDS011;69727;53.132;8.230;2023-11-21T11:43:52;10.13;;;5.18;;
80400;SDS011;69727;53.132;8.230;2023-11-21T11:46:18;11.45;;;5.70;;
80400;SDS011;69727;53.132;8.230;2023-11-21T11:48:46;10.32;;;5.32;;
80400;SDS011;69727;53.132;8.230;2023-11-21T11:51:13;18.23;;;7.18;;
80400;SDS011;69727;53.132;8.230;2023-11-21T11:53:42;15.55;;;6.90;;
80400;SDS011;69727;53.132;8.230;2023-11-21T11:56:34;13.23;;;6.28;;
80400;SDS011;69727;53.132;8.230;2023-11-21T11:59:04;13.13;;;6.00;;
80400;SDS011;69727;53.132;8.230;2023-11-21T12:01:31;11.68;;;5.55;;
80400;SDS011;69727;53.132;8.230;2023-11-21T12:06:39;10.35;;;5.38;;
80400;SDS011;69727;53.132;8.230;2023-11-21T12:09:06;13.30;;;5.82;;
80400;SDS011;69727;53.132;8.230;2023-11-21T12:11:32;14.30;;;6.45;;
80400;SDS011;69727;53.132;8.230;2023-11-21T12:13:58;12.65;;;5.85;;
80400;SDS011;69727;53.132;8.230;2023-11-21T12:16:25;19.33;;;7.82;;
80400;SDS011;69727;53.132;8.230;2023-11-21T12:18:53;15.52;;;6.03;;
80400;SDS011;69727;53.132;8.230;2023-11-21T12:21:19;11.70;;;5.28;;
80400;SDS011;69727;53.132;8.230;2023-11-21T12:23:46;11.23;;;5.38;;
80400;SDS011;69727;53.132;8.230;2023-11-21T12:26:12;10.57;;;5.07;;
80400;SDS011;69727;53.132;8.230;2023-11-21T12:28:38;12.40;;;4.82;;
80400;SDS011;69727;53.132;8.230;2023-11-21T12:31:04;10.20;;;4.22;;
80400;SDS011;69727;53.132;8.230;2023-11-21T12:33:32;9.10;;;3.83;;
80400;SDS011;69727;53.132;8.230;2023-11-21T12:35:58;10.60;;;4.20;;
80400;SDS011;69727;53.132;8.230;2023-11-21T12:38:36;7.72;;;4.18;;
80400;SDS011;69727;53.132;8.230;2023-11-21T12:41:01;9.80;;;3.38;;
80400;SDS011;69727;53.132;8.230;2023-11-21T12:43:27;7.18;;;3.35;;
80400;SDS011;69727;53.132;8.230;2023-11-21T12:46:06;6.63;;;2.90;;
80400;SDS011;69727;53.132;8.230;2023-11-21T12:48:39;6.93;;;3.33;;
80400;SDS011;69727;53.132;8.230;2023-11-21T12:51:09;8.88;;;3.13;;
80400;SDS011;69727;53.132;8.230;2023-11-21T12:53:36;6.53;;;3.17;;
80400;SDS011;69727;53.132;8.230;2023-11-21T12:56:21;9.20;;;3.40;;
80400;SDS011;69727;53.132;8.230;2023-11-21T12:58:48;6.88;;;3.30;;
80400;SDS011;69727;53.132;8.230;2023-11-21T13:01:15;6.72;;;3.25;;
80400;SDS011;69727;53.132;8.230;2023-11-21T13:03:45;6.72;;;3.38;;
80400;SDS011;69727;53.132;8.230;2023-11-21T13:06:13;7.72;;;3.28;;
80400;SDS011;69727;53.132;8.230;2023-11-21T13:08:39;9.65;;;4.30;;
80400;SDS011;69727;53.132;8.230;2023-11-21T13:11:05;8.38;;;3.90;;
80400;SDS011;69727;53.132;8.230;2023-11-21T13:13:31;8.82;;;4.55;;
80400;SDS011;69727;53.132;8.230;2023-11-21T13:16:01;8.45;;;3.85;;
80400;SDS011;69727;53.132;8.230;2023-11-21T13:18:45;7.55;;;3.40;;
80400;SDS011;69727;53.132;8.230;2023-11-21T13:21:11;8.50;;;4.28;;
80400;SDS011;69727;53.132;8.230;2023-11-21T13:23:41;8.48;;;4.15;;
80400;SDS011;69727;53.132;8.230;2023-11-21T13:26:08;9.77;;;4.03;;
80400;SDS011;69727;53.132;8.230;2023-11-21T13:28:34;7.45;;;3.95;;
80400;SDS011;69727;53.132;8.230;2023-11-21T13:31:01;8.32;;;4.10;;
80400;SDS011;69727;53.132;8.230;2023-11-21T13:33:34;8.45;;;4.47;;
80400;SDS011;69727;53.132;8.230;2023-11-21T13:36:02;8.38;;;4.65;;
80400;SDS011;69727;53.132;8.230;2023-11-21T13:38:32;9.35;;;4.50;;
80400;SDS011;69727;53.132;8.230;2023-11-21T13:40:59;8.30;;;4.07;;
80400;SDS011;69727;53.132;8.230;2023-11-21T13:43:25;11.70;;;4.18;;
80400;SDS011;69727;53.132;8.230;2023-11-21T13:45:53;7.22;;;3.92;;
80400;SDS011;69727;53.132;8.230;2023-11-21T13:48:37;8.68;;;3.53;;
80400;SDS011;69727;53.132;8.230;2023-11-21T13:51:15;7.82;;;4.40;;
80400;SDS011;69727;53.132;8.230;2023-11-21T13:53:45;7.50;;;3.80;;
80400;SDS011;69727;53.132;8.230;2023-11-21T13:56:18;7.30;;;3.45;;
80400;SDS011;69727;53.132;8.230;2023-11-21T13:58:51;9.35;;;4.00;;
80400;SDS011;69727;53.132;8.230;2023-11-21T14:01:17;8.40;;;3.50;;
80400;SDS011;69727;53.132;8.230;2023-11-21T14:03:59;7.93;;;4.10;;
80400;SDS011;69727;53.132;8.230;2023-11-21T14:06:48;10.60;;;4.40;;
80400;SDS011;69727;53.132;8.230;2023-11-21T14:09:16;8.52;;;3.80;;
80400;SDS011;69727;53.132;8.230;2023-11-21T14:12:02;8.25;;;4.55;;
80400;SDS011;69727;53.132;8.230;2023-11-21T14:14:31;7.82;;;3.88;;
80400;SDS011;69727;53.132;8.230;2023-11-21T14:16:56;10.60;;;4.63;;
80400;SDS011;69727;53.132;8.230;2023-11-21T14:19:23;8.82;;;4.35;;
80400;SDS011;69727;53.132;8.230;2023-11-21T14:21:52;7.53;;;3.40;;
80400;SDS011;69727;53.132;8.230;2023-11-21T14:24:18;9.95;;;4.22;;
80400;SDS011;69727;53.132;8.230;2023-11-21T14:26:44;8.20;;;4.18;;
80400;SDS011;69727;53.132;8.230;2023-11-21T14:29:13;11.93;;;5.47;;
80400;SDS011;69727;53.132;8.230;2023-11-21T14:31:41;8.32;;;4.15;;
80400;SDS011;69727;53.132;8.230;2023-11-21T14:34:08;9.07;;;4.18;;
80400;SDS011;69727;53.132;8.230;2023-11-21T14:36:34;8.18;;;4.72;;
80400;SDS011;69727;53.132;8.230;2023-11-21T14:39:01;8.90;;;4.55;;
80400;SDS011;69727;53.132;8.230;2023-11-21T14:41:29;15.40;;;6.72;;
80400;SDS011;69727;53.132;8.230;2023-11-21T14:43:54;7.97;;;4.53;;
80400;SDS011;69727;53.132;8.230;2023-11-21T14:46:22;12.07;;;4.75;;
80400;SDS011;69727;53.132;8.230;2023-11-21T14:48:47;8.70;;;4.63;;